Flight Track Log - Related Links

Times and Time Zones

All times are in EDT time to prevent confusion due to time zone crossing. See the SWA1563 flight status page for this flight to view local times or setup timezone preferences in your user account.

Time Position Orientation Groundspeed Altitude Reporting Facility
EDT Latitude Longitude Course Direction KTS MPH feet Rate Location/Type
Fri 07:43:45 PM 33.4167 -112.0833 248° West 212 244 3,000  Level Phoenix TRACON
Fri 07:45:35 PM 33.4100 -112.2078 266° West 265 305 7,300 2,772 Climbing Albuquerque Center
Fri 07:46:36 PM 33.4167 -112.3028 275° West 282 325 10,900 3,512 Climbing Albuquerque Center
Fri 07:47:38 PM 33.4264 -112.4386 275° West 341 392 14,500 3,435 Climbing Albuquerque Center
Fri 07:48:40 PM 33.4350 -112.5553 275° West 347 399 18,000 3,000 Climbing Albuquerque Center
Fri 07:49:42 PM 33.4414 -112.6625 274° West 352 405 20,700 2,683 Climbing Albuquerque Center
Fri 07:50:43 PM 33.4519 -112.8097 275° West 366 421 23,500 2,341 Climbing Albuquerque Center
Fri 07:51:45 PM 33.4756 -112.9375 283° West 386 444 25,500 1,694 Climbing Albuquerque Center
Fri 07:52:47 PM 33.5006 -113.0708 283° West 405 466 27,000 1,561 Climbing Albuquerque Center
Fri 07:53:48 PM 33.5269 -113.2075 283° West 416 479 28,700 1,854 Climbing Albuquerque Center
Fri 07:54:50 PM 33.5531 -113.3442 283° West 423 487 30,800 2,098 Climbing Albuquerque Center
Fri 07:55:51 PM 33.5781 -113.4786 283° West 421 484 33,000 2,049 Climbing Albuquerque Center
Fri 07:56:53 PM 33.6017 -113.6067 283° West 403 464 35,000 1,645 Climbing Albuquerque Center
Fri 07:57:55 PM 33.6281 -113.7511 282° West 396 456 36,400 1,403 Climbing Albuquerque Center
Fri 07:58:57 PM 33.6533 -113.8819 283° West 397 457 37,900 1,415 Climbing Albuquerque Center
Fri 07:59:58 PM 33.6764 -114.0072 283° West 392 451 39,300 878 Climbing Albuquerque Center
Fri 08:01:00 PM 33.6994 -114.1328 282° West 388 447 39,700 290 Climbing Albuquerque Center
Fri 08:02:02 PM 33.7236 -114.2717 282° West 395 455 39,900 145 Climbing Albuquerque Center
Fri 08:03:04 PM 33.7536 -114.4039 285° West 407 468 40,000 49 Climbing Albuquerque Center
Fri 08:04:05 PM 33.7892 -114.5339 288° West 408 470 40,000  Level Albuquerque Center
Fri 08:05:27 PM 33.8364 -114.7208 287° West 411 473 40,000  Level Los Angeles Center
Fri 08:06:30 PM 33.8758 -114.8775 287° West 411 473 40,000  Level Los Angeles Center
Fri 08:07:32 PM 33.9097 -115.0072 288° West 410 472 40,000  Level Los Angeles Center
Fri 08:08:34 PM 33.9411 -115.1381 286° West 410 472 40,000  Level Los Angeles Center
Fri 08:09:36 PM 33.9733 -115.2686 287° West 410 472 40,000  Level Los Angeles Center
Fri 08:10:38 PM 34.0053 -115.3983 287° West 409 471 40,000  Level Los Angeles Center
Fri 08:11:40 PM 34.0381 -115.5297 287° West 410 472 40,000  Level Los Angeles Center
Fri 08:12:42 PM 34.0769 -115.6886 287° West 410 472 40,000  Level Los Angeles Center
Fri 08:13:45 PM 34.1097 -115.8200 287° West 411 473 40,000  Level Los Angeles Center
Fri 08:14:47 PM 34.1439 -115.9622 286° West 411 473 40,000  Level Los Angeles Center
Fri 08:15:49 PM 34.1756 -116.0961 286° West 413 475 40,000  Level Los Angeles Center
Fri 08:16:51 PM 34.2075 -116.2303 286° West 414 476 40,000  Level Los Angeles Center
Fri 08:17:53 PM 34.2397 -116.3650 286° West 415 478 40,000  Level Los Angeles Center
Fri 08:18:55 PM 34.2714 -116.4994 286° West 415 478 40,000  Level Los Angeles Center
Fri 08:19:57 PM 34.3042 -116.6317 287° West 412 474 40,000  Level Los Angeles Center
Fri 08:21:00 PM 34.3411 -116.7936 285° West 414 476 40,000  Level Los Angeles Center
Fri 08:22:02 PM 34.3731 -116.9278 286° West 414 476 40,000  Level Los Angeles Center
Fri 08:23:04 PM 34.4042 -117.0631 286° West 415 478 40,000  Level Los Angeles Center
Fri 08:24:06 PM 34.4350 -117.1994 285° West 416 479 40,000  Level Los Angeles Center
Fri 08:25:08 PM 34.4658 -117.3342 286° West 416 479 40,000  Level Los Angeles Center
Fri 08:26:10 PM 34.4967 -117.4689 286° West 415 478 40,000  Level Los Angeles Center
Fri 08:27:13 PM 34.5328 -117.6303 285° West 414 476 40,000  Level Los Angeles Center
Fri 08:28:15 PM 34.5639 -117.7664 286° West 415 478 40,000  Level Los Angeles Center
Fri 08:29:17 PM 34.5944 -117.9042 285° West 418 481 40,000  Level Los Angeles Center
Fri 08:30:19 PM 34.6244 -118.0411 285° West 418 481 40,000  Level Los Angeles Center
Fri 08:31:21 PM 34.6544 -118.1800 285° West 420 483 40,000  Level Los Angeles Center
Fri 08:32:23 PM 34.6844 -118.3164 285° West 420 483 40,000  Level Los Angeles Center
Fri 08:33:25 PM 34.7358 -118.4719 292° West 421 484 40,000  Level Los Angeles Center
Fri 08:34:27 PM 34.8117 -118.5583 317° Northwest 430 495 40,000  Level Los Angeles Center
Fri 08:35:29 PM 34.9008 -118.6586 317° Northwest 421 484 40,000  Level Los Angeles Center
Fri 08:36:32 PM 35.0039 -118.7767 317° Northwest 421 484 40,000  Level Los Angeles Center
Fri 08:37:34 PM 35.0892 -118.8722 317° Northwest 421 484 40,000  Level Los Angeles Center
Fri 08:38:36 PM 35.1747 -118.9700 317° Northwest 421 484 40,000  Level Los Angeles Center
Fri 08:39:38 PM 35.2608 -119.0667 318° Northwest 423 487 40,000  Level Los Angeles Center
Fri 08:40:40 PM 35.3458 -119.1650 317° Northwest 423 487 40,000  Level Los Angeles Center
Fri 08:41:42 PM 35.4292 -119.2611 317° Northwest 418 481 40,000  Level Los Angeles Center
Fri 08:42:44 PM 35.5306 -119.3786 317° Northwest 419 482 40,000  Level Los Angeles Center
Fri 08:43:46 PM 35.6150 -119.4761 317° Northwest 419 482 40,000  Level Los Angeles Center
Fri 08:44:49 PM 35.6981 -119.5731 317° Northwest 418 481 40,000  Level Los Angeles Center
Fri 08:45:51 PM 35.7836 -119.6719 317° Northwest 423 487 40,000  Level Los Angeles Center
Fri 08:46:53 PM 35.8667 -119.7714 316° Northwest 422 486 40,000  Level Los Angeles Center
Fri 08:47:55 PM 35.9675 -119.8897 316° Northwest 421 484 40,000 -484 Level Los Angeles Center
Fri 08:48:57 PM 36.0506 -119.9881 316° Northwest 420 483 39,000 -968 Descending Los Angeles Center
Fri 08:49:59 PM 36.1331 -120.0864 316° Northwest 418 481 38,000 -919 Descending Los Angeles Center
Fri 08:51:01 PM 36.2167 -120.1847 317° Northwest 418 481 37,100 -969 Descending Los Angeles Center
Fri 08:52:09 PM 36.3136 -120.2964 317° Northwest 406 467 35,900 -977 Descending Oakland Center
Fri 08:53:10 PM 36.3944 -120.3917 317° Northwest 405 466 35,000 -934 Descending Oakland Center
Fri 08:54:11 PM 36.4747 -120.4872 316° Northwest 402 463 34,000 -927 Descending Oakland Center
Fri 08:55:13 PM 36.5553 -120.5872 315° West 407 468 33,100 -1,854 Descending Oakland Center
Fri 08:56:14 PM 36.6353 -120.6811 317° Northwest 401 461 30,200 -2,754 Descending Oakland Center
Fri 08:57:15 PM 36.7136 -120.7769 316° Northwest 399 459 27,500 -2,803 Descending Oakland Center
Fri 08:58:16 PM 36.8047 -120.8819 317° Northwest 375 432 24,500 -2,459 Descending Oakland Center
Fri 08:59:17 PM 36.8697 -120.9564 318° Northwest 366 421 22,500 -2,195 Descending Oakland Center
Fri 09:00:19 PM 36.9467 -121.0469 317° Northwest 374 430 20,000 -2,390 Descending Oakland Center
Fri 09:01:20 PM 37.0236 -121.1333 318° Northwest 374 430 17,600 -2,607 Descending Oakland Center
Fri 09:02:21 PM 37.1131 -121.2378 317° Northwest 367 422 14,700 -2,557 Descending Oakland Center
Fri 09:03:22 PM 37.1831 -121.3172 318° Northwest 346 398 12,400 -2,066 Descending Oakland Center
Fri 09:04:23 PM 37.2503 -121.3967 317° Northwest 335 386 10,500 -1,180 Descending Oakland Center
Fri 09:05:24 PM 37.3108 -121.4689 317° Northwest 304 350 10,000 -738 Descending Oakland Center
Fri 09:06:25 PM 37.3703 -121.5344 319° Northwest 282 325 9,000 -976 Descending Oakland Center
Fri 09:07:27 PM 37.4247 -121.5978 317° Northwest 272 313 8,000 -976 Descending Oakland Center
Fri 09:08:28 PM 37.4789 -121.6625 317° Northwest 270 311 7,000 -984 Descending Oakland Center
Fri 09:09:29 PM 37.5092 -121.7414 296° West 269 310 6,000 -492 Descending Oakland Center
Fri 09:10:30 PM 37.5225 -121.8272 281° West 255 293 6,000 -393 Level Oakland Center
Fri 09:11:31 PM 37.5353 -121.9142 281° West 254 292 5,200 -885 Descending Oakland Center
Fri 09:12:32 PM 37.5483 -121.9939 282° West 245 282 4,200 -878 Descending Oakland Center
Fri 09:13:34 PM 37.5922 -122.0544 312° West 237 273 3,400 -976 Descending Oakland Center
Fri 09:14:35 PM 37.6353 -122.1169 311° West 213 245 2,200 -969 Descending Oakland Center
Fri 09:15:44 PM 37.6667 -122.1667 309° West 134 154 1,300 -744 Descending Northern Cal TRACON
Fri 09:16:44 PM 37.6833 -122.2000 302° West 128 147 600 -700 Descending Northern Cal TRACON
Fri 09:19:00 PM 37.7167 -122.2167 270° West  Level FlightAware Approximate
Fri 09:26:00 PM 37.7213 -122.2212 270° West  Level Estimated

Login

Don't have an account? Register now (free) for customized features, flight alerts, and more!